sensor_id;sensor_type;location;lat;lon;timestamp;temperature;humidity
13835;DHT22;6988;52.614;13.500;2022-11-20T00:03:06;0.70;99.90
13835;DHT22;6988;52.614;13.500;2022-11-20T00:07:58;0.70;99.90
13835;DHT22;6988;52.614;13.500;2022-11-20T00:12:49;0.70;99.90
13835;DHT22;6988;52.614;13.500;2022-11-20T00:17:41;0.80;99.90
13835;DHT22;6988;52.614;13.500;2022-11-20T00:22:34;0.70;99.90
13835;DHT22;6988;52.614;13.500;2022-11-20T00:27:26;0.70;99.90
13835;DHT22;6988;52.614;13.500;2022-11-20T00:32:18;0.70;99.90
13835;DHT22;6988;52.614;13.500;2022-11-20T00:37:10;0.70;99.90
13835;DHT22;6988;52.614;13.500;2022-11-20T00:42:03;0.70;99.90
13835;DHT22;6988;52.614;13.500;2022-11-20T00:46:55;0.70;99.90
13835;DHT22;6988;52.614;13.500;2022-11-20T00:51:47;0.70;99.90
13835;DHT22;6988;52.614;13.500;2022-11-20T00:56:39;0.60;99.90
13835;DHT22;6988;52.614;13.500;2022-11-20T01:01:32;0.60;99.90
13835;DHT22;6988;52.614;13.500;2022-11-20T01:06:25;0.60;99.90
13835;DHT22;6988;52.614;13.500;2022-11-20T01:11:22;0.60;99.90
13835;DHT22;6988;52.614;13.500;2022-11-20T01:16:17;0.50;99.90
13835;DHT22;6988;52.614;13.500;2022-11-20T01:21:13;0.50;99.90
13835;DHT22;6988;52.614;13.500;2022-11-20T01:26:08;0.50;99.90
13835;DHT22;6988;52.614;13.500;2022-11-20T01:31:10;0.50;99.90
13835;DHT22;6988;52.614;13.500;2022-11-20T01:36:05;0.50;99.90
13835;DHT22;6988;52.614;13.500;2022-11-20T01:40:59;0.50;99.90
13835;DHT22;6988;52.614;13.500;2022-11-20T01:46:04;0.50;99.90
13835;DHT22;6988;52.614;13.500;2022-11-20T01:51:10;0.50;99.90
13835;DHT22;6988;52.614;13.500;2022-11-20T01:56:10;0.50;99.90
13835;DHT22;6988;52.614;13.500;2022-11-20T02:01:05;0.60;99.90
13835;DHT22;6988;52.614;13.500;2022-11-20T02:06:01;0.60;99.90
13835;DHT22;6988;52.614;13.500;2022-11-20T02:10:59;0.60;99.90
13835;DHT22;6988;52.614;13.500;2022-11-20T02:15:52;0.50;99.90
13835;DHT22;6988;52.614;13.500;2022-11-20T02:20:47;0.50;99.90
13835;DHT22;6988;52.614;13.500;2022-11-20T02:25:42;0.60;99.90
13835;DHT22;6988;52.614;13.500;2022-11-20T02:30:37;0.50;99.90
13835;DHT22;6988;52.614;13.500;2022-11-20T02:35:41;0.50;99.90
13835;DHT22;6988;52.614;13.500;2022-11-20T02:40:34;0.50;99.90
13835;DHT22;6988;52.614;13.500;2022-11-20T02:45:27;0.60;99.90
13835;DHT22;6988;52.614;13.500;2022-11-20T02:50:20;0.60;99.90
13835;DHT22;6988;52.614;13.500;2022-11-20T02:55:13;0.60;99.90
13835;DHT22;6988;52.614;13.500;2022-11-20T03:00:06;0.60;99.90
13835;DHT22;6988;52.614;13.500;2022-11-20T03:05:00;0.50;99.90
13835;DHT22;6988;52.614;13.500;2022-11-20T03:09:52;0.50;99.90
13835;DHT22;6988;52.614;13.500;2022-11-20T03:14:44;0.60;99.90
13835;DHT22;6988;52.614;13.500;2022-11-20T03:19:35;0.50;99.90
13835;DHT22;6988;52.614;13.500;2022-11-20T03:24:29;0.50;99.90
13835;DHT22;6988;52.614;13.500;2022-11-20T03:29:20;0.50;99.90
13835;DHT22;6988;52.614;13.500;2022-11-20T03:34:13;0.50;99.90
13835;DHT22;6988;52.614;13.500;2022-11-20T03:39:05;0.50;99.90
13835;DHT22;6988;52.614;13.500;2022-11-20T03:44:01;0.50;99.90
13835;DHT22;6988;52.614;13.500;2022-11-20T03:48:55;0.50;99.90
13835;DHT22;6988;52.614;13.500;2022-11-20T03:53:48;0.50;99.90
13835;DHT22;6988;52.614;13.500;2022-11-20T03:58:42;0.50;99.90
13835;DHT22;6988;52.614;13.500;2022-11-20T04:03:36;0.50;99.90
13835;DHT22;6988;52.614;13.500;2022-11-20T04:08:30;0.40;99.90
13835;DHT22;6988;52.614;13.500;2022-11-20T04:13:22;0.40;99.90
13835;DHT22;6988;52.614;13.500;2022-11-20T04:18:14;0.50;99.90
13835;DHT22;6988;52.614;13.500;2022-11-20T04:23:08;0.50;99.90
13835;DHT22;6988;52.614;13.500;2022-11-20T04:28:00;0.40;99.90
13835;DHT22;6988;52.614;13.500;2022-11-20T04:32:52;0.50;99.90
13835;DHT22;6988;52.614;13.500;2022-11-20T04:37:44;0.50;99.90
13835;DHT22;6988;52.614;13.500;2022-11-20T04:42:37;0.50;99.90
13835;DHT22;6988;52.614;13.500;2022-11-20T04:47:28;0.50;99.90
13835;DHT22;6988;52.614;13.500;2022-11-20T04:52:20;0.50;99.90
13835;DHT22;6988;52.614;13.500;2022-11-20T04:57:13;0.40;99.90
13835;DHT22;6988;52.614;13.500;2022-11-20T05:02:07;0.50;99.90
13835;DHT22;6988;52.614;13.500;2022-11-20T05:06:59;0.50;99.90
13835;DHT22;6988;52.614;13.500;2022-11-20T05:11:50;0.50;99.90
13835;DHT22;6988;52.614;13.500;2022-11-20T05:16:42;0.50;99.90
13835;DHT22;6988;52.614;13.500;2022-11-20T05:21:38;0.40;99.90
13835;DHT22;6988;52.614;13.500;2022-11-20T05:26:30;0.40;99.90
13835;DHT22;6988;52.614;13.500;2022-11-20T05:31:23;0.30;99.90
13835;DHT22;6988;52.614;13.500;2022-11-20T05:36:16;0.50;99.90
13835;DHT22;6988;52.614;13.500;2022-11-20T05:41:11;0.40;99.90
13835;DHT22;6988;52.614;13.500;2022-11-20T05:46:06;0.50;99.90
13835;DHT22;6988;52.614;13.500;2022-11-20T05:51:01;0.40;99.90
13835;DHT22;6988;52.614;13.500;2022-11-20T05:55:58;0.40;99.90
13835;DHT22;6988;52.614;13.500;2022-11-20T06:00:52;0.30;99.90
13835;DHT22;6988;52.614;13.500;2022-11-20T06:05:44;0.50;99.90
13835;DHT22;6988;52.614;13.500;2022-11-20T06:10:36;0.40;99.90
13835;DHT22;6988;52.614;13.500;2022-11-20T06:15:27;0.40;99.90
13835;DHT22;6988;52.614;13.500;2022-11-20T06:20:21;0.40;99.90
13835;DHT22;6988;52.614;13.500;2022-11-20T06:25:13;0.40;99.90
13835;DHT22;6988;52.614;13.500;2022-11-20T06:30:06;0.40;99.90
13835;DHT22;6988;52.614;13.500;2022-11-20T06:34:58;0.40;99.90
13835;DHT22;6988;52.614;13.500;2022-11-20T06:39:51;0.40;99.90
13835;DHT22;6988;52.614;13.500;2022-11-20T06:44:44;0.40;99.90
13835;DHT22;6988;52.614;13.500;2022-11-20T06:49:35;0.40;99.90
13835;DHT22;6988;52.614;13.500;2022-11-20T06:54:28;0.50;99.90
13835;DHT22;6988;52.614;13.500;2022-11-20T06:59:21;0.50;99.90
13835;DHT22;6988;52.614;13.500;2022-11-20T07:04:13;0.50;99.90
13835;DHT22;6988;52.614;13.500;2022-11-20T07:09:07;0.50;99.90
13835;DHT22;6988;52.614;13.500;2022-11-20T07:13:59;0.60;99.90
13835;DHT22;6988;52.614;13.500;2022-11-20T07:18:53;0.60;99.90
13835;DHT22;6988;52.614;13.500;2022-11-20T07:23:45;0.60;99.90
13835;DHT22;6988;52.614;13.500;2022-11-20T07:28:38;0.60;99.90
13835;DHT22;6988;52.614;13.500;2022-11-20T07:33:30;0.70;99.90
13835;DHT22;6988;52.614;13.500;2022-11-20T07:38:23;0.70;99.90
13835;DHT22;6988;52.614;13.500;2022-11-20T07:43:15;0.80;99.90
13835;DHT22;6988;52.614;13.500;2022-11-20T07:48:07;0.80;99.90
13835;DHT22;6988;52.614;13.500;2022-11-20T07:53:02;0.90;99.90
13835;DHT22;6988;52.614;13.500;2022-11-20T07:57:56;0.90;99.90
13835;DHT22;6988;52.614;13.500;2022-11-20T08:02:48;0.90;99.90
13835;DHT22;6988;52.614;13.500;2022-11-20T08:07:42;1.00;99.90
13835;DHT22;6988;52.614;13.500;2022-11-20T08:12:35;1.10;99.90
13835;DHT22;6988;52.614;13.500;2022-11-20T08:18:02;1.10;99.90
13835;DHT22;6988;52.614;13.500;2022-11-20T08:22:58;1.10;99.90
13835;DHT22;6988;52.614;13.500;2022-11-20T08:27:51;1.20;99.90
13835;DHT22;6988;52.614;13.500;2022-11-20T08:32:43;1.20;99.90
13835;DHT22;6988;52.614;13.500;2022-11-20T08:37:36;1.20;99.90
13835;DHT22;6988;52.614;13.500;2022-11-20T08:42:31;1.20;99.90
13835;DHT22;6988;52.614;13.500;2022-11-20T08:47:23;1.20;99.90
13835;DHT22;6988;52.614;13.500;2022-11-20T08:52:15;1.20;99.90
13835;DHT22;6988;52.614;13.500;2022-11-20T08:57:08;1.20;99.90
13835;DHT22;6988;52.614;13.500;2022-11-20T09:02:00;1.30;99.90
13835;DHT22;6988;52.614;13.500;2022-11-20T09:06:52;1.30;99.90
13835;DHT22;6988;52.614;13.500;2022-11-20T09:11:43;1.30;99.90
13835;DHT22;6988;52.614;13.500;2022-11-20T09:16:37;1.30;99.90
13835;DHT22;6988;52.614;13.500;2022-11-20T09:21:29;1.40;99.90
13835;DHT22;6988;52.614;13.500;2022-11-20T09:26:21;1.40;99.90
13835;DHT22;6988;52.614;13.500;2022-11-20T09:31:19;1.40;99.90
13835;DHT22;6988;52.614;13.500;2022-11-20T09:36:15;1.40;99.90
13835;DHT22;6988;52.614;13.500;2022-11-20T09:41:23;1.40;99.90
13835;DHT22;6988;52.614;13.500;2022-11-20T09:46:34;1.50;99.90
13835;DHT22;6988;52.614;13.500;2022-11-20T09:51:39;1.50;99.90
13835;DHT22;6988;52.614;13.500;2022-11-20T09:56:40;1.60;99.90
13835;DHT22;6988;52.614;13.500;2022-11-20T10:01:36;1.70;99.90
13835;DHT22;6988;52.614;13.500;2022-11-20T10:06:34;1.90;99.90
13835;DHT22;6988;52.614;13.500;2022-11-20T10:11:40;1.90;99.90
13835;DHT22;6988;52.614;13.500;2022-11-20T10:16:53;2.00;99.90
13835;DHT22;6988;52.614;13.500;2022-11-20T10:22:03;1.90;99.90
13835;DHT22;6988;52.614;13.500;2022-11-20T10:27:14;2.00;99.90
13835;DHT22;6988;52.614;13.500;2022-11-20T10:32:29;1.90;99.90
13835;DHT22;6988;52.614;13.500;2022-11-20T10:37:27;1.90;99.90
13835;DHT22;6988;52.614;13.500;2022-11-20T10:42:29;1.90;99.90
13835;DHT22;6988;52.614;13.500;2022-11-20T10:47:30;1.90;99.90
13835;DHT22;6988;52.614;13.500;2022-11-20T10:52:31;1.90;99.90
13835;DHT22;6988;52.614;13.500;2022-11-20T10:57:46;2.00;99.90
13835;DHT22;6988;52.614;13.500;2022-11-20T11:02:48;2.00;99.90
13835;DHT22;6988;52.614;13.500;2022-11-20T11:07:42;2.00;99.90
13835;DHT22;6988;52.614;13.500;2022-11-20T11:12:37;2.10;99.90
13835;DHT22;6988;52.614;13.500;2022-11-20T11:17:36;2.10;99.90
13835;DHT22;6988;52.614;13.500;2022-11-20T11:22:45;2.20;99.90
13835;DHT22;6988;52.614;13.500;2022-11-20T11:27:45;2.10;99.90
13835;DHT22;6988;52.614;13.500;2022-11-20T11:32:38;2.10;99.90
13835;DHT22;6988;52.614;13.500;2022-11-20T11:37:33;2.10;99.90
13835;DHT22;6988;52.614;13.500;2022-11-20T11:42:28;2.00;99.90
13835;DHT22;6988;52.614;13.500;2022-11-20T11:47:24;2.00;99.90
13835;DHT22;6988;52.614;13.500;2022-11-20T11:52:22;2.00;99.90
13835;DHT22;6988;52.614;13.500;2022-11-20T11:57:22;2.00;99.90
13835;DHT22;6988;52.614;13.500;2022-11-20T12:02:29;1.80;99.90
13835;DHT22;6988;52.614;13.500;2022-11-20T12:07:36;1.80;99.90
13835;DHT22;6988;52.614;13.500;2022-11-20T12:12:37;1.70;99.90
13835;DHT22;6988;52.614;13.500;2022-11-20T12:17:38;1.70;99.90
13835;DHT22;6988;52.614;13.500;2022-11-20T12:22:34;1.60;99.90
13835;DHT22;6988;52.614;13.500;2022-11-20T12:27:48;1.80;99.90
13835;DHT22;6988;52.614;13.500;2022-11-20T12:33:22;1.80;99.90
13835;DHT22;6988;52.614;13.500;2022-11-20T12:38:47;1.80;99.90
13835;DHT22;6988;52.614;13.500;2022-11-20T12:43:59;1.80;99.90
13835;DHT22;6988;52.614;13.500;2022-11-20T12:49:32;1.80;99.90
13835;DHT22;6988;52.614;13.500;2022-11-20T12:54:57;1.90;99.90
13835;DHT22;6988;52.614;13.500;2022-11-20T13:00:08;2.00;99.90
13835;DHT22;6988;52.614;13.500;2022-11-20T13:05:18;2.20;99.90
13835;DHT22;6988;52.614;13.500;2022-11-20T13:10:19;2.40;99.90
13835;DHT22;6988;52.614;13.500;2022-11-20T13:15:24;2.50;99.90
13835;DHT22;6988;52.614;13.500;2022-11-20T13:20:26;2.40;99.90
13835;DHT22;6988;52.614;13.500;2022-11-20T13:25:25;2.40;99.90
13835;DHT22;6988;52.614;13.500;2022-11-20T13:30:20;2.30;99.90
13835;DHT22;6988;52.614;13.500;2022-11-20T13:35:26;2.30;99.90
13835;DHT22;6988;52.614;13.500;2022-11-20T13:40:23;2.20;99.90
13835;DHT22;6988;52.614;13.500;2022-11-20T13:45:23;2.20;99.90
13835;DHT22;6988;52.614;13.500;2022-11-20T13:50:18;2.20;99.90
13835;DHT22;6988;52.614;13.500;2022-11-20T13:55:18;2.10;99.90
13835;DHT22;6988;52.614;13.500;2022-11-20T14:00:17;2.10;99.90
13835;DHT22;6988;52.614;13.500;2022-11-20T14:05:19;2.00;99.90
13835;DHT22;6988;52.614;13.500;2022-11-20T14:10:22;1.90;99.90
13835;DHT22;6988;52.614;13.500;2022-11-20T14:15:25;1.90;99.90
13835;DHT22;6988;52.614;13.500;2022-11-20T14:20:18;1.80;99.90
13835;DHT22;6988;52.614;13.500;2022-11-20T14:25:21;1.70;99.90
13835;DHT22;6988;52.614;13.500;2022-11-20T14:30:19;1.70;99.90
13835;DHT22;6988;52.614;13.500;2022-11-20T14:35:17;1.60;99.90
13835;DHT22;6988;52.614;13.500;2022-11-20T14:40:27;1.50;99.90
13835;DHT22;6988;52.614;13.500;2022-11-20T14:45:21;1.40;99.90
13835;DHT22;6988;52.614;13.500;2022-11-20T14:50:18;1.40;99.90
13835;DHT22;6988;52.614;13.500;2022-11-20T14:55:13;1.40;99.90
13835;DHT22;6988;52.614;13.500;2022-11-20T15:00:20;1.40;99.90
13835;DHT22;6988;52.614;13.500;2022-11-20T15:05:17;1.30;99.90
13835;DHT22;6988;52.614;13.500;2022-11-20T15:10:11;1.30;99.90
13835;DHT22;6988;52.614;13.500;2022-11-20T15:15:09;1.30;99.90
13835;DHT22;6988;52.614;13.500;2022-11-20T15:20:10;1.30;99.90
13835;DHT22;6988;52.614;13.500;2022-11-20T15:25:11;1.40;99.90
13835;DHT22;6988;52.614;13.500;2022-11-20T15:30:13;1.40;99.90
13835;DHT22;6988;52.614;13.500;2022-11-20T15:35:07;1.30;99.90
13835;DHT22;6988;52.614;13.500;2022-11-20T15:40:02;1.30;99.90
13835;DHT22;6988;52.614;13.500;2022-11-20T15:44:54;1.30;99.90
13835;DHT22;6988;52.614;13.500;2022-11-20T15:49:48;1.30;99.90
13835;DHT22;6988;52.614;13.500;2022-11-20T15:54:39;1.20;99.90
13835;DHT22;6988;52.614;13.500;2022-11-20T15:59:31;1.30;99.90
13835;DHT22;6988;52.614;13.500;2022-11-20T16:04:23;1.30;99.90
13835;DHT22;6988;52.614;13.500;2022-11-20T16:09:16;1.30;99.90
13835;DHT22;6988;52.614;13.500;2022-11-20T16:14:10;1.20;99.90
13835;DHT22;6988;52.614;13.500;2022-11-20T16:19:19;1.20;99.90
13835;DHT22;6988;52.614;13.500;2022-11-20T16:24:13;1.10;99.90
13835;DHT22;6988;52.614;13.500;2022-11-20T16:29:07;1.10;99.90
13835;DHT22;6988;52.614;13.500;2022-11-20T16:34:02;1.00;99.90
13835;DHT22;6988;52.614;13.500;2022-11-20T16:38:56;1.00;99.90
13835;DHT22;6988;52.614;13.500;2022-11-20T16:43:50;1.00;99.90
13835;DHT22;6988;52.614;13.500;2022-11-20T16:48:52;0.90;99.90
13835;DHT22;6988;52.614;13.500;2022-11-20T16:53:45;0.90;99.90
13835;DHT22;6988;52.614;13.500;2022-11-20T16:58:37;0.90;99.90
13835;DHT22;6988;52.614;13.500;2022-11-20T17:03:32;0.90;99.90
13835;DHT22;6988;52.614;13.500;2022-11-20T17:08:27;0.80;99.90
13835;DHT22;6988;52.614;13.500;2022-11-20T17:13:20;0.80;99.90
13835;DHT22;6988;52.614;13.500;2022-11-20T17:18:12;0.80;99.90
13835;DHT22;6988;52.614;13.500;2022-11-20T17:23:03;0.80;99.90
13835;DHT22;6988;52.614;13.500;2022-11-20T17:27:57;0.90;99.90
13835;DHT22;6988;52.614;13.500;2022-11-20T17:32:48;0.90;99.90
13835;DHT22;6988;52.614;13.500;2022-11-20T17:37:40;0.90;99.90
13835;DHT22;6988;52.614;13.500;2022-11-20T17:42:32;0.90;99.90
13835;DHT22;6988;52.614;13.500;2022-11-20T17:47:27;0.80;99.90
13835;DHT22;6988;52.614;13.500;2022-11-20T17:52:19;0.80;99.90
13835;DHT22;6988;52.614;13.500;2022-11-20T17:57:12;0.80;99.90
13835;DHT22;6988;52.614;13.500;2022-11-20T18:02:22;0.90;99.90
13835;DHT22;6988;52.614;13.500;2022-11-20T18:07:15;0.90;99.90
13835;DHT22;6988;52.614;13.500;2022-11-20T18:12:07;0.90;99.90
13835;DHT22;6988;52.614;13.500;2022-11-20T18:17:02;0.90;99.90
13835;DHT22;6988;52.614;13.500;2022-11-20T18:21:55;0.90;99.90
13835;DHT22;6988;52.614;13.500;2022-11-20T18:26:48;0.90;99.90
13835;DHT22;6988;52.614;13.500;2022-11-20T18:31:40;0.90;99.90
13835;DHT22;6988;52.614;13.500;2022-11-20T18:36:32;0.90;99.90
13835;DHT22;6988;52.614;13.500;2022-11-20T18:41:26;0.90;99.90
13835;DHT22;6988;52.614;13.500;2022-11-20T18:46:38;1.00;99.90
13835;DHT22;6988;52.614;13.500;2022-11-20T18:51:30;1.00;99.90
13835;DHT22;6988;52.614;13.500;2022-11-20T18:56:22;1.00;99.90
13835;DHT22;6988;52.614;13.500;2022-11-20T19:01:14;1.00;99.90
13835;DHT22;6988;52.614;13.500;2022-11-20T19:06:11;1.10;99.90
13835;DHT22;6988;52.614;13.500;2022-11-20T19:11:07;1.10;99.90
13835;DHT22;6988;52.614;13.500;2022-11-20T19:16:01;1.10;99.90
13835;DHT22;6988;52.614;13.500;2022-11-20T19:20:53;1.10;99.90
13835;DHT22;6988;52.614;13.500;2022-11-20T19:25:46;1.10;99.90
13835;DHT22;6988;52.614;13.500;2022-11-20T19:30:39;1.00;99.90
13835;DHT22;6988;52.614;13.500;2022-11-20T19:35:31;0.90;99.90
13835;DHT22;6988;52.614;13.500;2022-11-20T19:40:26;0.90;99.90
13835;DHT22;6988;52.614;13.500;2022-11-20T19:45:19;0.80;99.90
13835;DHT22;6988;52.614;13.500;2022-11-20T19:50:11;0.80;99.90
13835;DHT22;6988;52.614;13.500;2022-11-20T19:55:03;0.80;99.90
13835;DHT22;6988;52.614;13.500;2022-11-20T19:59:56;0.80;99.90
13835;DHT22;6988;52.614;13.500;2022-11-20T20:04:49;0.80;99.90
13835;DHT22;6988;52.614;13.500;2022-11-20T20:09:43;0.70;99.90
13835;DHT22;6988;52.614;13.500;2022-11-20T20:14:35;0.70;99.90
13835;DHT22;6988;52.614;13.500;2022-11-20T20:19:27;0.70;99.90
13835;DHT22;6988;52.614;13.500;2022-11-20T20:24:21;0.70;99.90
13835;DHT22;6988;52.614;13.500;2022-11-20T20:29:13;0.60;99.90
13835;DHT22;6988;52.614;13.500;2022-11-20T20:34:05;0.60;99.90
13835;DHT22;6988;52.614;13.500;2022-11-20T20:38:57;0.50;99.90
13835;DHT22;6988;52.614;13.500;2022-11-20T20:43:53;0.50;99.90
13835;DHT22;6988;52.614;13.500;2022-11-20T20:49:03;0.40;99.90
13835;DHT22;6988;52.614;13.500;2022-11-20T20:53:55;0.40;99.90
13835;DHT22;6988;52.614;13.500;2022-11-20T20:58:47;0.40;99.90
13835;DHT22;6988;52.614;13.500;2022-11-20T21:03:40;0.40;99.90
13835;DHT22;6988;52.614;13.500;2022-11-20T21:08:33;0.30;99.90
13835;DHT22;6988;52.614;13.500;2022-11-20T21:13:26;0.30;99.90
13835;DHT22;6988;52.614;13.500;2022-11-20T21:18:19;0.20;99.90
13835;DHT22;6988;52.614;13.500;2022-11-20T21:23:13;0.20;99.90
13835;DHT22;6988;52.614;13.500;2022-11-20T21:28:06;0.20;99.90
13835;DHT22;6988;52.614;13.500;2022-11-20T21:32:58;0.20;99.90
13835;DHT22;6988;52.614;13.500;2022-11-20T21:37:50;0.10;99.90
13835;DHT22;6988;52.614;13.500;2022-11-20T21:42:46;0.10;99.90
13835;DHT22;6988;52.614;13.500;2022-11-20T21:47:38;0.00;99.90
13835;DHT22;6988;52.614;13.500;2022-11-20T21:52:30;-0.10;99.90
13835;DHT22;6988;52.614;13.500;2022-11-20T21:57:22;-0.10;99.90
13835;DHT22;6988;52.614;13.500;2022-11-20T22:02:15;-0.20;99.90
13835;DHT22;6988;52.614;13.500;2022-11-20T22:07:07;-0.20;99.90
13835;DHT22;6988;52.614;13.500;2022-11-20T22:11:59;-0.20;99.90
13835;DHT22;6988;52.614;13.500;2022-11-20T22:16:52;-0.20;99.90
13835;DHT22;6988;52.614;13.500;2022-11-20T22:21:46;-0.30;99.90
13835;DHT22;6988;52.614;13.500;2022-11-20T22:26:38;-0.30;99.90
13835;DHT22;6988;52.614;13.500;2022-11-20T22:31:31;-0.40;99.90
13835;DHT22;6988;52.614;13.500;2022-11-20T22:36:24;-0.40;99.90
13835;DHT22;6988;52.614;13.500;2022-11-20T22:41:20;-0.40;99.90
13835;DHT22;6988;52.614;13.500;2022-11-20T23:04:34;-0.70;99.90
13835;DHT22;6988;52.614;13.500;2022-11-20T23:09:26;-0.80;99.90
13835;DHT22;6988;52.614;13.500;2022-11-20T23:14:19;-0.80;99.90
13835;DHT22;6988;52.614;13.500;2022-11-20T23:19:12;-0.90;99.90
13835;DHT22;6988;52.614;13.500;2022-11-20T23:24:07;-1.00;99.90
13835;DHT22;6988;52.614;13.500;2022-11-20T23:28:59;-1.20;99.90
13835;DHT22;6988;52.614;13.500;2022-11-20T23:33:52;-1.20;99.90
13835;DHT22;6988;52.614;13.500;2022-11-20T23:38:44;-1.30;99.90
13835;DHT22;6988;52.614;13.500;2022-11-20T23:43:38;-1.30;99.90
13835;DHT22;6988;52.614;13.500;2022-11-20T23:48:31;-1.40;99.90
13835;DHT22;6988;52.614;13.500;2022-11-20T23:53:24;-1.50;99.90
13835;DHT22;6988;52.614;13.500;2022-11-20T23:58:17;-1.50;99.90
